createdAt,value
2022-10-23T00:01:29.534Z,6.45
2022-10-23T00:04:32.489Z,6.03
2022-10-23T00:07:35.183Z,6.38
2022-10-23T00:10:41.611Z,7.05
2022-10-23T00:13:45.319Z,7.47
2022-10-23T00:16:48.387Z,8.30
2022-10-23T00:19:51.960Z,7.43
2022-10-23T00:22:54.943Z,6.65
2022-10-23T00:25:58.023Z,6.90
2022-10-23T00:29:00.812Z,7.10
2022-10-23T00:32:03.662Z,6.25
2022-10-23T00:35:06.781Z,6.00
2022-10-23T00:38:10.476Z,5.93
2022-10-23T00:41:24.048Z,8.15
2022-10-23T00:44:29.854Z,8.37
2022-10-23T00:47:32.751Z,6.32
2022-10-23T00:50:36.399Z,5.70
2022-10-23T00:53:39.806Z,5.55
2022-10-23T00:56:44.724Z,5.35
2022-10-23T00:59:47.628Z,4.73
2022-10-23T01:02:51.923Z,5.40
2022-10-23T01:06:19.070Z,5.68
2022-10-23T01:09:39.465Z,4.82
2022-10-23T01:12:49.371Z,5.30
2022-10-23T01:16:10.471Z,5.37
2022-10-23T01:19:31.181Z,5.28
2022-10-23T01:22:56.304Z,4.95
2022-10-23T01:26:20.462Z,5.40
2022-10-23T01:29:43.655Z,5.07
2022-10-23T01:32:56.581Z,6.50
2022-10-23T01:36:04.999Z,6.72
2022-10-23T01:39:23.570Z,5.82
2022-10-23T01:42:32.012Z,6.15
2022-10-23T01:45:45.238Z,6.70
2022-10-23T01:48:55.058Z,6.33
2022-10-23T01:52:02.316Z,6.75
2022-10-23T01:55:07.467Z,6.70
2022-10-23T01:58:12.587Z,7.10
2022-10-23T02:01:20.206Z,6.93
2022-10-23T02:04:34.377Z,6.87
2022-10-23T02:07:37.611Z,7.55
2022-10-23T02:10:40.446Z,9.05
2022-10-23T02:13:48.165Z,9.25
2022-10-23T02:16:57.975Z,9.25
2022-10-23T02:20:13.731Z,9.80
2022-10-23T02:23:26.679Z,11.32
2022-10-23T02:26:43.889Z,11.35
2022-10-23T02:29:53.947Z,10.82
2022-10-23T02:32:58.739Z,9.68
2022-10-23T02:36:02.102Z,10.40
2022-10-23T02:39:05.804Z,10.57
2022-10-23T02:42:22.848Z,10.02
2022-10-23T02:45:44.520Z,9.93
2022-10-23T02:49:18.539Z,8.95
2022-10-23T02:52:38.063Z,8.50
2022-10-23T02:56:00.437Z,8.35
2022-10-23T02:59:27.905Z,8.35
2022-10-23T03:02:37.754Z,7.80
2022-10-23T03:05:44.934Z,7.60
2022-10-23T03:08:54.400Z,8.23
2022-10-23T03:11:57.244Z,7.75
2022-10-23T03:15:00.239Z,8.02
2022-10-23T03:18:03.091Z,6.70
2022-10-23T03:21:05.937Z,7.80
2022-10-23T03:24:09.789Z,7.07
2022-10-23T03:27:19.131Z,7.80
2022-10-23T03:30:22.088Z,8.05
2022-10-23T03:33:30.632Z,8.48
2022-10-23T03:36:41.910Z,10.00
2022-10-23T03:39:46.011Z,13.63
2022-10-23T03:42:48.771Z,12.90
2022-10-23T03:45:57.055Z,11.00
2022-10-23T03:49:01.803Z,9.00
2022-10-23T03:52:05.047Z,9.57
2022-10-23T03:55:08.524Z,8.97
2022-10-23T03:58:12.620Z,9.05
2022-10-23T04:01:15.573Z,8.90
2022-10-23T04:04:18.647Z,8.48
2022-10-23T04:07:21.514Z,8.90
2022-10-23T04:10:25.533Z,8.47
2022-10-23T04:13:28.266Z,8.05
2022-10-23T04:16:31.106Z,7.55
2022-10-23T04:19:35.863Z,6.90
2022-10-23T04:22:38.668Z,7.38
2022-10-23T04:25:42.220Z,8.20
2022-10-23T04:28:45.044Z,7.80
2022-10-23T04:31:47.738Z,7.35
2022-10-23T04:34:52.303Z,6.68
2022-10-23T04:37:55.134Z,6.68
2022-10-23T04:40:59.375Z,7.27
2022-10-23T04:44:02.119Z,7.00
2022-10-23T04:47:04.991Z,6.15
2022-10-23T04:50:10.320Z,6.93
2022-10-23T04:53:51.642Z,6.82
2022-10-23T04:57:12.765Z,6.90
2022-10-23T05:00:35.442Z,6.68
2022-10-23T05:03:38.946Z,7.20
2022-10-23T05:06:41.724Z,6.43
2022-10-23T05:09:52.647Z,7.03
2022-10-23T05:13:13.535Z,7.37
2022-10-23T05:16:40.786Z,7.28
2022-10-23T05:19:51.799Z,7.30
2022-10-23T05:22:58.410Z,6.95
2022-10-23T05:26:03.412Z,7.00
2022-10-23T05:29:07.474Z,7.03
2022-10-23T05:32:14.065Z,6.63
2022-10-23T05:35:21.899Z,7.65
2022-10-23T05:38:27.937Z,7.15
2022-10-23T05:41:31.472Z,7.10
2022-10-23T05:44:35.738Z,6.77
2022-10-23T05:47:45.573Z,7.18
2022-10-23T05:51:09.456Z,7.07
2022-10-23T05:54:21.819Z,8.02
2022-10-23T05:57:35.682Z,8.13
2022-10-23T06:00:42.476Z,7.40
2022-10-23T06:04:05.963Z,6.78
2022-10-23T06:07:37.807Z,8.00
2022-10-23T06:10:42.540Z,7.80
2022-10-23T06:13:48.572Z,10.93
2022-10-23T06:16:54.447Z,8.53
2022-10-23T06:20:03.667Z,8.60
2022-10-23T06:23:11.690Z,7.68
2022-10-23T06:26:33.558Z,6.38
2022-10-23T06:29:45.302Z,5.20
2022-10-23T06:32:48.035Z,6.07
2022-10-23T06:35:51.508Z,6.15
2022-10-23T06:38:56.425Z,6.07
2022-10-23T06:42:07.944Z,6.53
2022-10-23T06:45:30.263Z,6.40
2022-10-23T06:48:50.938Z,6.13
2022-10-23T06:52:00.411Z,6.60
2022-10-23T06:55:04.383Z,6.63
2022-10-23T06:58:11.125Z,6.20
2022-10-23T07:01:30.133Z,6.65
2022-10-23T07:04:33.030Z,6.03
2022-10-23T07:07:37.491Z,6.75
2022-10-23T07:10:43.134Z,6.20
2022-10-23T07:13:46.791Z,5.70
2022-10-23T07:16:52.318Z,6.90
2022-10-23T07:19:55.855Z,7.00
2022-10-23T07:22:59.467Z,6.60
2022-10-23T07:26:11.624Z,6.57
2022-10-23T07:29:14.527Z,7.22
2022-10-23T07:32:19.758Z,8.05
2022-10-23T07:35:41.565Z,8.37
2022-10-23T07:38:51.329Z,8.85
2022-10-23T07:41:54.212Z,8.35
2022-10-23T07:44:56.988Z,6.40
2022-10-23T07:47:59.678Z,9.73
2022-10-23T07:51:14.612Z,6.83
2022-10-23T07:54:23.247Z,6.13
2022-10-23T07:57:44.874Z,5.28
2022-10-23T08:01:04.821Z,5.22
2022-10-23T08:04:11.790Z,4.38
2022-10-23T08:07:24.348Z,4.60
2022-10-23T08:10:30.398Z,4.43
2022-10-23T08:13:35.181Z,5.53
2022-10-23T08:16:41.557Z,5.50
2022-10-23T08:20:11.185Z,6.18
2022-10-23T08:23:19.862Z,6.47
2022-10-23T08:26:24.805Z,6.70
2022-10-23T08:29:27.694Z,6.07
2022-10-23T08:32:33.565Z,7.10
2022-10-23T08:35:38.917Z,6.50
2022-10-23T08:38:42.677Z,5.13
2022-10-23T08:41:50.859Z,5.30
2022-10-23T08:45:05.162Z,5.60
2022-10-23T08:48:40.388Z,6.18
2022-10-23T08:52:14.429Z,6.60
2022-10-23T08:55:24.155Z,4.90
2022-10-23T08:58:50.042Z,4.65
2022-10-23T09:02:00.492Z,5.18
2022-10-23T09:05:03.610Z,4.20
2022-10-23T09:08:38.856Z,4.47
2022-10-23T09:11:55.669Z,4.47
2022-10-23T09:15:04.701Z,4.30
2022-10-23T09:18:16.231Z,4.38
2022-10-23T09:21:19.282Z,4.78
2022-10-23T09:24:24.414Z,3.55
2022-10-23T09:27:27.260Z,4.77
2022-10-23T09:30:37.295Z,5.60
2022-10-23T09:33:40.665Z,5.50
2022-10-23T09:36:50.515Z,4.80
2022-10-23T09:40:12.663Z,5.47
2022-10-23T09:43:18.958Z,5.60
2022-10-23T09:46:21.685Z,7.85
2022-10-23T09:49:30.200Z,7.50
2022-10-23T09:52:37.590Z,6.60
2022-10-23T09:55:40.403Z,7.40
2022-10-23T09:58:57.043Z,5.33
2022-10-23T10:02:04.726Z,6.40
2022-10-23T10:05:34.700Z,5.95
2022-10-23T10:08:57.098Z,5.85
2022-10-23T10:12:17.685Z,4.63
2022-10-23T10:15:32.544Z,5.37
2022-10-23T10:18:56.951Z,5.18
2022-10-23T10:22:26.354Z,5.25
2022-10-23T10:25:56.178Z,5.47
2022-10-23T10:29:14.107Z,5.45
2022-10-23T10:32:24.923Z,5.00
2022-10-23T10:35:37.457Z,5.95
2022-10-23T10:38:54.860Z,5.68
2022-10-23T10:42:12.974Z,5.57
2022-10-23T10:45:15.603Z,5.20
2022-10-23T10:48:47.694Z,5.10
2022-10-23T10:52:08.332Z,4.40
2022-10-23T10:55:22.526Z,5.03
2022-10-23T10:58:40.696Z,5.38
2022-10-23T11:01:51.063Z,5.13
2022-10-23T11:05:34.881Z,4.90
2022-10-23T11:08:56.305Z,4.75
2022-10-23T11:12:05.687Z,5.90
2022-10-23T11:15:34.740Z,5.55
2022-10-23T11:18:41.038Z,5.35
2022-10-23T11:21:46.505Z,4.30
2022-10-23T11:25:12.393Z,4.53
2022-10-23T11:28:31.467Z,5.85
2022-10-23T11:32:06.834Z,4.78
2022-10-23T11:35:18.602Z,5.40
2022-10-23T11:38:34.770Z,5.40
2022-10-23T11:41:37.643Z,6.13
2022-10-23T11:44:46.089Z,6.90
2022-10-23T11:47:58.872Z,5.82
2022-10-23T11:51:05.244Z,6.05
2022-10-23T11:54:17.287Z,6.27
2022-10-23T11:57:20.144Z,6.85
2022-10-23T12:00:24.231Z,6.90
2022-10-23T12:04:18.531Z,6.57
2022-10-23T12:07:30.092Z,7.30
2022-10-23T12:10:44.728Z,8.20
2022-10-23T12:13:47.536Z,7.43
2022-10-23T12:16:50.453Z,6.82
2022-10-23T12:19:56.009Z,5.65
2022-10-23T12:23:01.666Z,6.40
2022-10-23T12:26:23.315Z,6.20
2022-10-23T12:29:55.120Z,6.80
2022-10-23T12:33:39.893Z,6.90
2022-10-23T12:37:18.865Z,6.50
2022-10-23T12:40:22.669Z,7.20
2022-10-23T12:43:38.122Z,6.90
2022-10-23T12:46:43.578Z,6.20
2022-10-23T12:49:50.909Z,5.72
2022-10-23T12:52:57.333Z,5.45
2022-10-23T12:56:05.039Z,5.38
2022-10-23T12:59:16.251Z,4.63
2022-10-23T13:02:26.874Z,4.90
2022-10-23T13:05:32.258Z,4.57
2022-10-23T13:08:41.911Z,6.80
2022-10-23T13:12:09.134Z,5.90
2022-10-23T13:15:12.193Z,5.17
2022-10-23T13:18:16.590Z,5.60
2022-10-23T13:21:28.827Z,4.70
2022-10-23T13:24:32.168Z,3.55
2022-10-23T13:27:35.081Z,3.90
2022-10-23T13:30:43.493Z,3.73
2022-10-23T13:33:49.300Z,3.40
2022-10-23T13:36:58.982Z,3.65
2022-10-23T13:40:10.615Z,3.90
2022-10-23T13:43:16.614Z,4.85
2022-10-23T13:46:23.236Z,8.37
2022-10-23T13:49:25.985Z,6.80
2022-10-23T13:52:28.792Z,5.97
2022-10-23T13:55:31.914Z,4.32
2022-10-23T13:58:34.912Z,4.63
2022-10-23T14:01:38.062Z,4.43
2022-10-23T14:04:41.068Z,3.83
2022-10-23T14:07:44.057Z,4.25
2022-10-23T14:10:47.620Z,6.57
2022-10-23T14:13:50.901Z,7.22
2022-10-23T14:16:54.852Z,5.40
2022-10-23T14:19:57.607Z,6.40
2022-10-23T14:23:00.365Z,7.63
2022-10-23T14:26:07.542Z,7.38
2022-10-23T14:29:18.426Z,11.38
2022-10-23T14:32:24.243Z,10.33
2022-10-23T14:35:27.028Z,14.75
2022-10-23T14:38:30.057Z,7.75
2022-10-23T14:41:32.932Z,8.80
2022-10-23T14:44:35.766Z,6.78
2022-10-23T14:47:38.627Z,8.13
2022-10-23T14:50:47.172Z,8.43
2022-10-23T14:53:58.704Z,6.85
2022-10-23T14:57:02.991Z,8.15
2022-10-23T15:00:07.265Z,6.15
2022-10-23T15:03:10.316Z,8.10
2022-10-23T15:06:17.527Z,8.68
2022-10-23T15:09:21.543Z,13.85
2022-10-23T15:12:24.698Z,12.98
2022-10-23T15:15:27.670Z,8.30
2022-10-23T15:18:30.649Z,7.43
2022-10-23T15:21:33.436Z,7.50
2022-10-23T15:24:36.222Z,7.80
2022-10-23T15:27:39.170Z,8.20
2022-10-23T15:30:44.175Z,9.38
2022-10-23T15:33:50.167Z,9.53
2022-10-23T15:36:54.208Z,9.82
2022-10-23T15:39:59.716Z,12.38
2022-10-23T15:43:05.375Z,13.30
2022-10-23T15:46:08.144Z,12.35
2022-10-23T15:49:11.570Z,8.70
2022-10-23T15:52:14.738Z,7.90
2022-10-23T15:55:17.557Z,8.00
2022-10-23T15:58:20.431Z,8.30
2022-10-23T16:01:23.696Z,15.50
2022-10-23T16:04:28.617Z,15.43
2022-10-23T16:07:31.625Z,17.10
2022-10-23T16:10:40.414Z,23.00
2022-10-23T16:13:43.865Z,18.50
2022-10-23T16:16:46.759Z,14.00
2022-10-23T16:19:49.539Z,9.30
2022-10-23T16:22:52.368Z,7.30
2022-10-23T16:25:55.555Z,7.10
2022-10-23T16:29:02.259Z,6.80
2022-10-23T16:32:05.206Z,7.07
2022-10-23T16:35:11.022Z,6.93
2022-10-23T16:38:28.787Z,8.27
2022-10-23T16:41:32.535Z,10.32
2022-10-23T16:44:37.339Z,9.05
2022-10-23T16:47:42.060Z,9.70
2022-10-23T16:50:44.912Z,9.47
2022-10-23T16:53:48.698Z,9.80
2022-10-23T16:56:51.794Z,9.15
2022-10-23T16:59:55.111Z,8.88
2022-10-23T17:02:58.073Z,10.02
2022-10-23T17:06:02.830Z,10.40
2022-10-23T17:09:08.382Z,10.52
2022-10-23T17:12:11.433Z,9.65
2022-10-23T17:15:14.344Z,9.90
2022-10-23T17:18:17.839Z,11.95
2022-10-23T17:21:22.447Z,10.77
2022-10-23T17:24:25.436Z,12.80
2022-10-23T17:27:28.705Z,13.05
2022-10-23T17:30:31.548Z,11.93
2022-10-23T17:33:34.579Z,12.13
2022-10-23T17:36:40.642Z,13.33
2022-10-23T17:39:43.998Z,12.52
2022-10-23T17:42:47.177Z,14.43
2022-10-23T17:45:50.266Z,16.73
2022-10-23T17:48:56.386Z,18.40
2022-10-23T17:51:59.594Z,20.20
2022-10-23T17:55:02.559Z,24.10
2022-10-23T17:58:06.633Z,25.73
2022-10-23T18:01:12.138Z,24.67
2022-10-23T18:04:16.638Z,26.38
2022-10-23T18:07:20.091Z,24.13
2022-10-23T18:10:23.090Z,23.55
2022-10-23T18:13:26.186Z,24.38
2022-10-23T18:16:29.677Z,23.23
2022-10-23T18:19:32.469Z,23.38
2022-10-23T18:22:35.691Z,24.53
2022-10-23T18:25:43.222Z,27.05
2022-10-23T18:28:47.891Z,30.15
2022-10-23T18:31:50.965Z,30.65
2022-10-23T18:34:54.280Z,29.15
2022-10-23T18:37:58.166Z,29.90
2022-10-23T18:41:01.665Z,27.52
2022-10-23T18:44:05.092Z,23.65
2022-10-23T18:47:08.411Z,22.17
2022-10-23T18:50:11.913Z,23.10
2022-10-23T18:53:15.022Z,22.53
2022-10-23T18:56:23.597Z,24.35
2022-10-23T18:59:27.103Z,23.92
2022-10-23T19:02:30.414Z,21.30
2022-10-23T19:05:33.378Z,20.90
2022-10-23T19:08:38.017Z,20.50
2022-10-23T19:11:41.833Z,21.52
2022-10-23T19:14:46.059Z,20.30
2022-10-23T19:17:55.110Z,20.85
2022-10-23T19:20:59.597Z,20.30
2022-10-23T19:24:07.783Z,21.80
2022-10-23T19:27:11.164Z,23.10
2022-10-23T19:30:21.900Z,22.27
2022-10-23T19:33:25.837Z,20.58
2022-10-23T19:36:28.705Z,23.67
2022-10-23T19:39:31.930Z,23.67
2022-10-23T19:42:40.332Z,25.42
2022-10-23T19:45:43.426Z,22.85
2022-10-23T19:48:46.956Z,23.50
2022-10-23T19:51:51.486Z,23.65
2022-10-23T19:54:54.940Z,23.10
2022-10-23T19:57:58.046Z,25.48
2022-10-23T20:01:13.738Z,32.50
2022-10-23T20:04:18.463Z,35.47
2022-10-23T20:07:21.596Z,28.05
2022-10-23T20:10:26.001Z,27.93
2022-10-23T20:13:29.065Z,33.58
2022-10-23T20:16:37.710Z,35.08
2022-10-23T20:19:40.595Z,29.92
2022-10-23T20:22:44.214Z,27.15
2022-10-23T20:25:47.561Z,24.97
2022-10-23T20:28:54.110Z,26.25
2022-10-23T20:31:57.383Z,33.10
2022-10-23T20:35:00.828Z,27.90
2022-10-23T20:38:03.860Z,25.20
2022-10-23T20:41:07.141Z,23.77
2022-10-23T20:47:19.868Z,23.40
2022-10-23T20:50:23.994Z,23.38
2022-10-23T20:53:26.775Z,20.90
2022-10-23T20:56:35.607Z,22.90
2022-10-23T20:59:38.550Z,20.75
2022-10-23T21:02:41.564Z,23.35
2022-10-23T21:05:45.009Z,26.40
2022-10-23T21:08:47.863Z,22.10
2022-10-23T21:11:50.981Z,21.97
2022-10-23T21:14:53.908Z,21.55
2022-10-23T21:18:01.526Z,26.27
2022-10-23T21:21:12.568Z,22.52
2022-10-23T21:24:16.879Z,22.27
2022-10-23T21:27:19.955Z,19.07
2022-10-23T21:30:22.736Z,19.85
2022-10-23T21:33:26.174Z,22.55
2022-10-23T21:36:31.067Z,22.52
2022-10-23T21:39:35.055Z,25.05
2022-10-23T21:42:37.910Z,22.07
2022-10-23T21:45:40.776Z,21.10
2022-10-23T21:48:44.208Z,20.75
2022-10-23T21:51:47.547Z,19.60
2022-10-23T21:54:54.062Z,18.83
2022-10-23T21:57:56.911Z,18.63
2022-10-23T22:01:00.766Z,19.42
2022-10-23T22:04:03.767Z,18.70
2022-10-23T22:07:07.632Z,17.38
2022-10-23T22:10:10.631Z,17.98
2022-10-23T22:13:13.410Z,17.23
2022-10-23T22:16:17.139Z,16.13
2022-10-23T22:19:22.091Z,17.08
2022-10-23T22:22:24.904Z,15.52
2022-10-23T22:25:29.239Z,16.63
2022-10-23T22:28:32.230Z,17.50
2022-10-23T22:31:35.929Z,16.67
2022-10-23T22:34:55.381Z,17.30
2022-10-23T22:37:58.210Z,18.02
2022-10-23T22:41:02.544Z,20.00
2022-10-23T22:44:05.460Z,20.77
2022-10-23T22:47:08.303Z,18.27
2022-10-23T22:50:11.136Z,19.48
2022-10-23T22:53:13.885Z,19.33
2022-10-23T22:56:20.607Z,19.10
2022-10-23T22:59:23.511Z,18.53
2022-10-23T23:02:26.607Z,18.98
2022-10-23T23:05:29.460Z,19.33
2022-10-23T23:08:33.552Z,19.52
2022-10-23T23:11:45.759Z,20.80
2022-10-23T23:14:54.979Z,20.27
2022-10-23T23:17:57.982Z,19.98
2022-10-23T23:21:05.240Z,21.25
2022-10-23T23:24:08.302Z,20.67
2022-10-23T23:27:11.070Z,21.50
2022-10-23T23:30:13.917Z,22.43
2022-10-23T23:33:19.565Z,23.40
2022-10-23T23:36:27.726Z,23.70
2022-10-23T23:39:30.575Z,24.17
2022-10-23T23:42:33.361Z,26.33
2022-10-23T23:45:36.059Z,26.27
2022-10-23T23:48:39.391Z,25.98
2022-10-23T23:51:42.332Z,25.70
2022-10-23T23:54:45.075Z,23.05
2022-10-23T23:57:48.004Z,21.85
